Time;durP1;ratioP1;P1;durP2;ratioP2;P2;SDS_P1;SDS_P2;PMS_P1;PMS_P2;Temp;Humidity;BMP_temperature;BMP_pressure;BME280_temperature;BME280_humidity;BME280_pressure;Samples;Min_cycle;Max_cycle;Signal;HPM_P1;HPM_P2
2023/01/27 00:00:49;;;;;;;14.50;9.50;;;1.80;99.90;;;;;;5075207;28;20850;-69
2023/01/27 00:03:16;;;;;;;20.30;9.03;;;1.80;99.90;;;;;;5074797;28;20910;-70
2023/01/27 00:05:43;;;;;;;16.83;8.60;;;1.80;99.90;;;;;;5075330;28;20528;-69
2023/01/27 00:08:10;;;;;;;20.03;9.83;;;1.80;99.90;;;;;;5076059;28;20468;-70
2023/01/27 00:10:39;;;;;;;20.63;9.90;;;1.80;99.90;;;;;;5074914;28;20867;-71
2023/01/27 00:15:50;;;;;;;18.03;9.93;;;1.80;99.90;;;;;;5075033;28;20493;-70
2023/01/27 00:18:17;;;;;;;16.73;9.87;;;1.80;99.90;;;;;;5074827;28;20469;-71
2023/01/27 00:26:17;;;;;;;16.10;8.70;;;1.80;99.90;;;;;;5075133;28;20437;-71
2023/01/27 00:28:46;;;;;;;16.40;9.30;;;1.80;99.90;;;;;;5075077;28;20438;-71
2023/01/27 00:34:07;;;;;;;20.93;10.53;;;1.80;99.90;;;;;;5075233;28;21052;-70
2023/01/27 00:36:36;;;;;;;21.50;10.07;;;1.80;99.90;;;;;;5074729;28;20431;-70
2023/01/27 00:39:03;;;;;;;23.80;10.17;;;1.80;99.90;;;;;;5074513;28;20454;-68
2023/01/27 00:41:32;;;;;;;20.60;10.43;;;1.80;99.90;;;;;;5074729;28;20507;-70
2023/01/27 00:43:59;;;;;;;20.37;9.70;;;1.80;99.90;;;;;;5074190;28;20954;-71
2023/01/27 00:46:26;;;;;;;23.40;10.17;;;1.80;99.90;;;;;;5074506;28;20549;-70
2023/01/27 00:48:53;;;;;;;22.50;10.53;;;1.80;99.90;;;;;;5074175;28;20501;-71
2023/01/27 00:51:20;;;;;;;22.13;10.37;;;1.90;99.90;;;;;;5074944;28;20458;-70
2023/01/27 00:53:48;;;;;;;19.53;11.07;;;1.90;99.90;;;;;;5074519;28;20540;-70
2023/01/27 00:56:15;;;;;;;21.83;9.53;;;1.90;99.90;;;;;;5074041;28;20496;-70
2023/01/27 00:58:43;;;;;;;18.83;8.70;;;1.90;99.90;;;;;;5074087;28;20544;-70
2023/01/27 01:01:12;;;;;;;19.37;9.70;;;1.90;99.90;;;;;;5074025;28;20457;-71
2023/01/27 01:03:39;;;;;;;21.70;9.83;;;1.80;99.90;;;;;;5073989;28;20653;-69
2023/01/27 01:06:09;;;;;;;23.13;10.63;;;1.80;99.90;;;;;;5074322;28;20492;-71
2023/01/27 01:08:37;;;;;;;17.83;9.30;;;1.90;99.90;;;;;;5074410;28;20541;-71
2023/01/27 01:11:04;;;;;;;17.93;9.07;;;1.90;99.90;;;;;;5074031;28;20945;-70
2023/01/27 01:13:31;;;;;;;24.30;11.10;;;1.90;99.90;;;;;;5074315;28;20545;-72
2023/01/27 01:16:05;;;;;;;18.97;10.27;;;1.90;99.90;;;;;;5074332;28;20465;-70
2023/01/27 01:18:32;;;;;;;20.80;10.30;;;1.90;99.90;;;;;;5073948;28;20541;-69
2023/01/27 01:20:59;;;;;;;26.63;11.27;;;1.90;99.90;;;;;;5074272;28;20490;-70
2023/01/27 01:23:26;;;;;;;29.37;11.63;;;1.90;99.90;;;;;;5073947;28;20922;-70
2023/01/27 01:25:54;;;;;;;22.00;11.17;;;1.90;99.90;;;;;;5074175;28;20561;-69
2023/01/27 01:28:21;;;;;;;21.07;10.43;;;1.90;99.90;;;;;;5074210;28;20461;-69
2023/01/27 01:30:48;;;;;;;22.93;11.60;;;1.90;99.90;;;;;;5073774;28;20454;-71
2023/01/27 01:33:16;;;;;;;25.20;9.10;;;1.90;99.90;;;;;;5077653;28;20918;-70
2023/01/27 01:35:43;;;;;;;21.37;9.47;;;1.90;99.90;;;;;;5077601;28;20927;-70
2023/01/27 01:38:10;;;;;;;20.30;10.20;;;1.80;99.90;;;;;;5077584;28;20460;-70
2023/01/27 01:40:41;;;;;;;19.70;10.03;;;1.80;99.90;;;;;;5077912;28;20450;-70
2023/01/27 01:43:13;;;;;;;23.50;10.83;;;1.80;99.90;;;;;;5077543;28;20816;-71
2023/01/27 01:45:48;;;;;;;21.80;9.47;;;1.80;99.90;;;;;;5077745;28;20980;-71
2023/01/27 01:48:21;;;;;;;19.77;8.87;;;1.70;99.90;;;;;;5077844;28;20855;-71
2023/01/27 01:50:51;;;;;;;15.27;8.30;;;1.80;99.90;;;;;;5077655;28;20453;-70
2023/01/27 01:53:19;;;;;;;22.87;10.20;;;1.80;99.90;;;;;;5078442;28;20838;-71
2023/01/27 01:55:47;;;;;;;21.20;9.20;;;1.80;99.90;;;;;;5077696;28;20944;-70
2023/01/27 01:58:16;;;;;;;17.87;10.03;;;1.80;99.90;;;;;;5077500;28;20789;-70
2023/01/27 02:00:43;;;;;;;17.03;10.03;;;1.80;99.90;;;;;;5077410;28;20456;-70
2023/01/27 02:03:10;;;;;;;17.37;9.33;;;1.80;99.90;;;;;;5077083;28;20545;-70
2023/01/27 02:05:43;;;;;;;18.77;9.93;;;1.80;99.90;;;;;;5077050;28;20478;-70
2023/01/27 02:08:15;;;;;;;16.83;9.93;;;1.80;99.90;;;;;;5077308;28;20453;-69
2023/01/27 02:10:42;;;;;;;21.27;10.50;;;1.80;99.90;;;;;;5077143;28;20439;-70
2023/01/27 02:13:09;;;;;;;19.50;10.10;;;1.80;99.90;;;;;;5077574;28;20458;-70
2023/01/27 02:15:36;;;;;;;19.30;10.27;;;1.80;99.90;;;;;;5077349;28;20476;-71
2023/01/27 02:18:04;;;;;;;17.83;9.43;;;1.80;99.90;;;;;;5077205;28;20537;-70
2023/01/27 02:20:40;;;;;;;17.97;10.00;;;1.80;99.90;;;;;;5077219;28;20558;-70
2023/01/27 02:23:17;;;;;;;16.53;9.80;;;1.80;99.90;;;;;;5077656;28;20448;-70
2023/01/27 02:26:00;;;;;;;15.90;8.60;;;1.90;99.90;;;;;;5077305;28;20466;-70
2023/01/27 02:28:28;;;;;;;16.60;10.00;;;1.80;99.90;;;;;;5076903;28;20452;-70
2023/01/27 02:30:55;;;;;;;20.43;10.67;;;1.90;99.90;;;;;;5076712;28;20454;-70
2023/01/27 02:33:22;;;;;;;16.70;10.40;;;1.90;99.90;;;;;;5076593;28;20560;-70
2023/01/27 02:35:56;;;;;;;18.93;10.17;;;1.90;99.90;;;;;;5076351;28;20454;-70
2023/01/27 02:38:24;;;;;;;19.40;10.40;;;1.90;99.90;;;;;;5076561;28;20504;-70
2023/01/27 02:40:54;;;;;;;25.70;11.23;;;2.00;99.90;;;;;;5076650;28;20812;-70
2023/01/27 02:43:23;;;;;;;18.67;9.93;;;2.00;99.90;;;;;;5076264;28;20823;-70
2023/01/27 02:45:50;;;;;;;17.30;9.03;;;1.90;99.90;;;;;;5076691;28;20919;-70
2023/01/27 02:48:16;;;;;;;14.13;8.83;;;1.90;99.90;;;;;;5076327;28;20548;-70
2023/01/27 02:50:43;;;;;;;19.50;10.30;;;1.90;99.90;;;;;;5076339;28;20752;-70
2023/01/27 02:53:10;;;;;;;18.70;10.57;;;1.90;99.90;;;;;;5076289;28;20549;-71
2023/01/27 02:55:37;;;;;;;16.13;9.40;;;1.90;99.90;;;;;;5077187;28;20765;-70
2023/01/27 02:58:04;;;;;;;16.87;10.00;;;2.00;99.90;;;;;;5076285;28;20462;-70
2023/01/27 03:00:32;;;;;;;18.20;9.43;;;2.00;99.90;;;;;;5075941;28;20541;-70
2023/01/27 03:02:59;;;;;;;17.20;10.00;;;2.00;99.90;;;;;;5076164;28;20455;-69
2023/01/27 03:05:26;;;;;;;13.97;9.00;;;2.00;99.90;;;;;;5076999;28;20488;-69
2023/01/27 03:07:53;;;;;;;14.47;9.10;;;2.00;99.90;;;;;;5075813;28;21001;-70
2023/01/27 03:10:20;;;;;;;13.50;8.53;;;2.00;99.90;;;;;;5075985;28;20505;-71
2023/01/27 03:12:46;;;;;;;15.63;8.37;;;2.00;99.90;;;;;;5076141;28;20549;-70
2023/01/27 03:18:12;;;;;;;17.43;9.33;;;2.10;99.90;;;;;;5075828;28;20425;-70
2023/01/27 03:20:40;;;;;;;14.30;8.03;;;2.10;99.90;;;;;;5075970;28;20747;-71
2023/01/27 03:23:07;;;;;;;14.93;7.60;;;2.00;99.90;;;;;;5075740;28;20895;-69
2023/01/27 03:25:34;;;;;;;14.60;8.50;;;2.10;99.90;;;;;;5075464;28;20478;-70
2023/01/27 03:28:01;;;;;;;13.60;7.77;;;2.10;99.90;;;;;;5075730;28;20465;-70
2023/01/27 03:30:28;;;;;;;13.03;7.23;;;2.10;99.90;;;;;;5075670;28;20464;-70
2023/01/27 03:32:55;;;;;;;13.43;8.33;;;2.10;99.90;;;;;;5075519;28;20454;-69
2023/01/27 03:35:33;;;;;;;10.57;6.93;;;2.10;99.90;;;;;;5075493;28;20833;-70
2023/01/27 03:46:19;;;;;;;12.97;7.87;;;2.10;99.90;;;;;;5075348;28;20461;-70
2023/01/27 03:48:50;;;;;;;11.93;7.23;;;2.10;99.90;;;;;;5075142;28;20478;-70
2023/01/27 03:51:20;;;;;;;12.43;7.00;;;2.10;99.90;;;;;;5075266;28;20517;-70
2023/01/27 03:53:47;;;;;;;18.20;8.17;;;2.10;99.90;;;;;;5074845;28;20454;-70
2023/01/27 03:56:15;;;;;;;14.93;7.73;;;2.10;99.90;;;;;;5075256;28;20859;-70
2023/01/27 03:58:43;;;;;;;14.00;7.53;;;2.10;99.90;;;;;;5075018;28;20458;-70
2023/01/27 04:01:15;;;;;;;13.40;7.27;;;2.10;99.90;;;;;;5074696;28;20464;-70
2023/01/27 04:09:19;;;;;;;13.67;7.67;;;2.20;99.90;;;;;;5075014;28;20484;-71
2023/01/27 04:11:55;;;;;;;11.70;6.53;;;2.10;99.90;;;;;;5074882;28;20819;-70
2023/01/27 04:14:22;;;;;;;9.30;5.70;;;2.20;99.90;;;;;;5074861;28;20507;-69
2023/01/27 04:16:51;;;;;;;12.37;6.03;;;2.10;99.90;;;;;;5074908;28;20450;-70
2023/01/27 04:19:18;;;;;;;12.07;6.60;;;2.10;99.90;;;;;;5074732;28;20549;-69
2023/01/27 04:21:47;;;;;;;12.57;7.60;;;2.20;99.90;;;;;;5074749;28;20508;-70
2023/01/27 04:24:21;;;;;;;16.10;8.20;;;2.20;99.90;;;;;;5074616;28;20998;-69
2023/01/27 04:26:49;;;;;;;12.47;6.43;;;2.20;99.90;;;;;;5074383;28;20485;-70
2023/01/27 04:29:17;;;;;;;16.77;7.30;;;2.20;99.90;;;;;;5074606;28;20842;-70
2023/01/27 04:31:44;;;;;;;12.77;6.73;;;2.20;99.90;;;;;;5075107;28;20794;-70
2023/01/27 04:34:11;;;;;;;16.73;7.70;;;2.20;99.90;;;;;;5074759;28;20553;-71
2023/01/27 04:36:38;;;;;;;16.13;7.40;;;2.20;99.90;;;;;;5074739;28;20537;-69
2023/01/27 04:39:07;;;;;;;12.93;6.90;;;2.20;99.90;;;;;;5074763;28;20536;-71
2023/01/27 04:41:34;;;;;;;15.10;8.57;;;2.20;99.90;;;;;;5074324;28;20458;-70
2023/01/27 04:44:01;;;;;;;16.00;8.07;;;2.30;99.90;;;;;;5074455;28;20822;-71
2023/01/27 04:46:28;;;;;;;15.27;8.27;;;2.30;99.90;;;;;;5075082;28;20493;-70
2023/01/27 04:48:54;;;;;;;15.43;7.27;;;2.30;99.90;;;;;;5074552;28;20469;-71
2023/01/27 04:51:21;;;;;;;14.97;6.90;;;2.30;99.90;;;;;;5074564;28;20945;-70
2023/01/27 04:53:48;;;;;;;16.13;7.30;;;2.30;99.90;;;;;;5074716;28;20822;-71
2023/01/27 04:56:23;;;;;;;12.87;7.10;;;2.40;99.90;;;;;;5074608;28;20455;-70
2023/01/27 04:58:50;;;;;;;14.03;6.50;;;2.40;99.90;;;;;;5074244;28;20474;-70
2023/01/27 05:01:18;;;;;;;16.07;7.20;;;2.40;99.90;;;;;;5074213;28;20930;-70
2023/01/27 05:03:45;;;;;;;11.67;6.27;;;2.40;99.90;;;;;;5074487;28;20545;-70
2023/01/27 05:06:12;;;;;;;12.40;6.83;;;2.40;99.90;;;;;;5075050;28;20486;-70
2023/01/27 05:08:39;;;;;;;13.47;6.83;;;2.40;99.90;;;;;;5078909;28;20545;-70
2023/01/27 05:11:06;;;;;;;16.20;7.07;;;2.40;99.90;;;;;;5079168;28;20464;-70
2023/01/27 05:13:35;;;;;;;14.00;7.30;;;2.40;99.90;;;;;;5079067;28;20457;-70
2023/01/27 05:16:10;;;;;;;14.67;7.50;;;2.40;99.90;;;;;;5079232;28;20785;-70
2023/01/27 05:18:38;;;;;;;14.07;7.00;;;2.40;99.90;;;;;;5078977;28;20458;-69
2023/01/27 05:21:06;;;;;;;14.03;7.50;;;2.40;99.90;;;;;;5077968;28;20458;-71
2023/01/27 05:23:36;;;;;;;13.07;7.20;;;2.40;99.90;;;;;;5078157;28;20545;-70
2023/01/27 05:26:09;;;;;;;13.33;6.83;;;2.40;99.90;;;;;;5078608;28;20863;-69
2023/01/27 05:28:39;;;;;;;13.23;7.00;;;2.30;99.90;;;;;;5078346;28;20867;-69
2023/01/27 05:31:07;;;;;;;15.40;7.73;;;2.30;99.90;;;;;;5078122;28;20458;-70
2023/01/27 05:33:34;;;;;;;11.83;6.40;;;2.30;99.90;;;;;;5078034;28;20752;-70
2023/01/27 05:36:03;;;;;;;11.00;6.17;;;2.30;99.90;;;;;;5077849;28;20450;-69
2023/01/27 05:38:30;;;;;;;11.50;6.40;;;2.40;99.90;;;;;;5077680;28;20457;-70
2023/01/27 05:40:59;;;;;;;15.07;7.00;;;2.30;99.90;;;;;;5077624;28;20465;-71
2023/01/27 05:43:27;;;;;;;12.23;7.00;;;2.30;99.90;;;;;;5077628;28;20508;-70
2023/01/27 05:46:03;;;;;;;13.70;8.47;;;2.30;99.90;;;;;;5078074;28;20814;-70
2023/01/27 05:48:30;;;;;;;12.10;6.97;;;2.30;99.90;;;;;;5077246;28;20442;-70
2023/01/27 05:50:58;;;;;;;16.97;6.60;;;2.30;99.90;;;;;;5078541;28;20545;-70
2023/01/27 05:53:25;;;;;;;14.50;8.63;;;2.30;99.90;;;;;;5077983;28;20549;-70
2023/01/27 05:55:52;;;;;;;13.43;6.90;;;2.30;99.90;;;;;;5078382;28;20460;-72
2023/01/27 05:58:20;;;;;;;14.60;7.07;;;2.30;99.90;;;;;;5077730;28;20530;-70
2023/01/27 06:00:47;;;;;;;15.23;7.20;;;2.30;99.90;;;;;;5077422;28;20500;-70
2023/01/27 06:03:16;;;;;;;11.73;6.10;;;2.30;99.90;;;;;;5077485;28;20454;-69
2023/01/27 06:05:54;;;;;;;10.63;6.23;;;2.30;99.90;;;;;;5077414;28;20486;-71
2023/01/27 06:08:21;;;;;;;22.37;11.37;;;2.20;99.90;;;;;;5077347;28;20454;-70
2023/01/27 06:10:48;;;;;;;26.90;15.90;;;2.20;99.90;;;;;;5078092;28;20515;-70
2023/01/27 06:13:15;;;;;;;12.10;6.90;;;2.20;99.90;;;;;;5077106;28;20454;-69
2023/01/27 06:15:42;;;;;;;13.90;7.10;;;2.20;99.90;;;;;;5077530;28;20480;-70
2023/01/27 06:18:09;;;;;;;12.57;8.20;;;2.20;99.90;;;;;;5076712;28;20939;-71
2023/01/27 06:20:38;;;;;;;13.90;8.23;;;2.30;99.90;;;;;;5077145;28;20454;-70
2023/01/27 06:23:05;;;;;;;12.70;7.07;;;2.30;99.90;;;;;;5076601;28;20468;-71
2023/01/27 06:25:36;;;;;;;15.37;7.90;;;2.30;99.90;;;;;;5076753;28;20496;-71
2023/01/27 06:28:03;;;;;;;41.57;23.70;;;2.30;99.90;;;;;;5076850;28;20450;-69
2023/01/27 06:30:30;;;;;;;16.50;8.70;;;2.30;99.90;;;;;;5076845;28;20486;-71
2023/01/27 06:32:57;;;;;;;11.07;5.53;;;2.30;99.90;;;;;;5076899;28;20794;-70
2023/01/27 06:35:24;;;;;;;10.17;6.43;;;2.30;99.90;;;;;;5077057;28;20802;-70
2023/01/27 06:37:52;;;;;;;11.53;6.57;;;2.40;99.90;;;;;;5077400;28;20855;-70
2023/01/27 06:40:19;;;;;;;13.73;6.80;;;2.30;99.90;;;;;;5077011;28;20882;-70
2023/01/27 06:42:46;;;;;;;11.57;6.20;;;2.30;99.90;;;;;;5076527;28;20458;-70
2023/01/27 06:45:13;;;;;;;13.53;6.70;;;2.40;99.90;;;;;;5076509;28;20537;-70
2023/01/27 06:47:40;;;;;;;12.60;6.97;;;2.40;99.90;;;;;;5076374;28;20482;-70
2023/01/27 06:50:09;;;;;;;13.33;7.97;;;2.40;99.90;;;;;;5076262;28;20950;-70
2023/01/27 06:52:36;;;;;;;13.47;7.90;;;2.40;99.90;;;;;;5076703;28;20856;-70
2023/01/27 06:55:05;;;;;;;15.63;7.20;;;2.50;99.90;;;;;;5076748;28;20541;-71
2023/01/27 06:57:32;;;;;;;14.40;9.30;;;2.50;99.90;;;;;;5077287;28;20446;-71
2023/01/27 06:59:59;;;;;;;19.47;9.23;;;2.50;99.90;;;;;;5077035;28;20509;-71
2023/01/27 07:02:26;;;;;;;16.73;7.30;;;2.50;99.90;;;;;;5076444;28;20838;-70
2023/01/27 07:04:52;;;;;;;13.80;8.07;;;2.60;99.90;;;;;;5076082;28;20573;-70
2023/01/27 07:07:19;;;;;;;14.13;7.73;;;2.60;99.90;;;;;;5076279;28;20560;-70
2023/01/27 07:09:46;;;;;;;17.17;8.03;;;2.60;99.90;;;;;;5075880;28;20914;-70
2023/01/27 07:12:14;;;;;;;14.90;8.90;;;2.70;99.90;;;;;;5076069;28;20458;-71
2023/01/27 07:14:41;;;;;;;14.90;8.77;;;2.70;99.90;;;;;;5075697;28;20552;-71
2023/01/27 07:17:08;;;;;;;15.43;9.80;;;2.70;99.90;;;;;;5076378;28;20549;-70
2023/01/27 07:19:35;;;;;;;18.70;8.60;;;2.80;99.90;;;;;;5070796;28;20459;-70
2023/01/27 07:22:01;;;;;;;21.27;9.23;;;2.80;99.90;;;;;;5055899;28;20561;-69
2023/01/27 07:24:28;;;;;;;15.73;9.10;;;2.80;99.90;;;;;;5055898;28;20490;-70
2023/01/27 07:26:55;;;;;;;12.60;7.40;;;2.80;99.90;;;;;;5055961;28;20475;-70
2023/01/27 07:29:23;;;;;;;15.80;9.47;;;2.80;99.90;;;;;;5055185;28;20455;-70
2023/01/27 07:31:50;;;;;;;17.40;10.00;;;2.90;99.90;;;;;;5056073;28;20455;-70
2023/01/27 07:34:17;;;;;;;16.33;8.47;;;2.90;99.90;;;;;;5055599;28;20465;-70
2023/01/27 07:36:44;;;;;;;16.17;8.80;;;2.90;99.90;;;;;;5055709;28;20567;-70
2023/01/27 07:39:11;;;;;;;19.23;8.50;;;2.90;99.90;;;;;;5055677;28;20547;-70
2023/01/27 07:41:38;;;;;;;17.80;8.43;;;2.90;99.90;;;;;;5055663;28;20970;-70
2023/01/27 07:44:05;;;;;;;19.30;9.07;;;2.90;99.90;;;;;;5055212;28;20478;-70
2023/01/27 07:46:33;;;;;;;19.53;8.23;;;3.00;99.90;;;;;;5056370;28;20495;-70
2023/01/27 07:49:00;;;;;;;20.43;7.90;;;3.00;99.90;;;;;;5055308;28;20465;-71
2023/01/27 07:51:27;;;;;;;13.20;7.90;;;3.00;99.90;;;;;;5055192;28;21019;-71
2023/01/27 07:53:54;;;;;;;14.77;7.50;;;3.00;99.90;;;;;;5055357;28;20524;-69
2023/01/27 07:56:21;;;;;;;15.40;8.53;;;3.00;99.90;;;;;;5055289;28;20841;-70
2023/01/27 07:58:47;;;;;;;16.67;9.40;;;3.10;99.90;;;;;;5055322;28;20562;-69
2023/01/27 08:01:14;;;;;;;16.63;10.60;;;3.20;99.90;;;;;;5054904;28;20467;-70
2023/01/27 08:03:43;;;;;;;17.77;11.03;;;3.20;99.90;;;;;;5055308;28;20463;-70
2023/01/27 08:06:12;;;;;;;23.80;11.83;;;3.20;99.90;;;;;;5055170;28;20487;-70
2023/01/27 08:08:39;;;;;;;24.93;11.20;;;3.30;99.90;;;;;;5054572;28;20455;-71
2023/01/27 08:11:08;;;;;;;21.87;13.33;;;3.30;99.90;;;;;;5054913;28;20462;-71
2023/01/27 08:13:36;;;;;;;26.77;12.70;;;3.30;99.90;;;;;;5054985;28;20451;-71
2023/01/27 08:16:05;;;;;;;24.40;12.73;;;3.30;99.90;;;;;;5054988;28;20459;-70
2023/01/27 08:18:33;;;;;;;25.50;12.67;;;3.40;99.90;;;;;;5054938;28;20466;-69
2023/01/27 08:21:03;;;;;;;22.67;10.73;;;3.40;99.90;;;;;;5054378;28;20470;-69
2023/01/27 08:23:30;;;;;;;19.77;10.37;;;3.50;99.90;;;;;;5054330;28;20792;-69
2023/01/27 08:25:59;;;;;;;15.93;9.10;;;3.50;99.90;;;;;;5054921;28;20455;-70
2023/01/27 08:28:28;;;;;;;17.30;8.57;;;3.50;99.90;;;;;;5054644;28;20786;-71
2023/01/27 08:30:54;;;;;;;19.70;9.97;;;3.50;99.90;;;;;;5054327;28;20478;-69
2023/01/27 08:33:23;;;;;;;19.23;11.10;;;3.60;99.90;;;;;;5054562;28;20465;-71
2023/01/27 08:35:50;;;;;;;11.37;7.60;;;3.60;99.90;;;;;;5054378;28;20498;-69
2023/01/27 08:38:19;;;;;;;16.57;8.73;;;3.70;99.90;;;;;;5054160;28;20455;-69
2023/01/27 08:40:47;;;;;;;18.03;11.93;;;3.80;99.90;;;;;;5053864;28;20455;-70
2023/01/27 08:43:16;;;;;;;17.23;11.33;;;3.80;99.90;;;;;;5053731;28;20487;-71
2023/01/27 08:45:45;;;;;;;25.87;13.93;;;3.90;99.90;;;;;;5054408;28;20462;-71
2023/01/27 08:48:12;;;;;;;17.03;10.87;;;3.90;99.90;;;;;;5054383;28;20521;-69
2023/01/27 08:50:39;;;;;;;15.90;10.93;;;4.00;99.90;;;;;;5054430;28;20455;-71
2023/01/27 08:53:06;;;;;;;13.40;8.97;;;4.00;99.90;;;;;;5054432;28;20857;-70
2023/01/27 08:55:34;;;;;;;11.63;7.90;;;4.10;99.90;;;;;;5054181;28;20493;-72
2023/01/27 08:58:02;;;;;;;15.93;11.87;;;4.10;99.90;;;;;;5054058;28;20462;-70
2023/01/27 09:00:29;;;;;;;13.03;7.80;;;4.20;99.90;;;;;;5054435;28;20550;-70
2023/01/27 09:02:55;;;;;;;10.07;7.23;;;4.20;99.90;;;;;;5054110;28;20798;-70
2023/01/27 09:05:22;;;;;;;9.90;6.63;;;4.20;99.90;;;;;;5054023;28;20497;-71
2023/01/27 09:07:49;;;;;;;13.20;7.63;;;4.20;99.90;;;;;;5053971;28;20509;-69
2023/01/27 09:10:17;;;;;;;9.50;7.83;;;4.30;99.90;;;;;;5054502;28;20455;-70
2023/01/27 09:12:45;;;;;;;11.80;6.53;;;4.30;99.90;;;;;;5054157;28;20455;-70
2023/01/27 09:15:13;;;;;;;9.67;6.90;;;4.30;99.90;;;;;;5053940;28;20942;-71
2023/01/27 09:17:40;;;;;;;8.90;6.27;;;4.30;99.90;;;;;;5053978;28;20501;-70
2023/01/27 09:20:09;;;;;;;9.43;7.30;;;4.40;99.90;;;;;;5054196;28;20469;-71
2023/01/27 09:22:38;;;;;;;8.33;6.67;;;4.40;99.90;;;;;;5054237;28;20466;-71
2023/01/27 09:25:06;;;;;;;11.33;6.80;;;4.40;99.90;;;;;;5054161;28;20470;-70
2023/01/27 09:27:33;;;;;;;9.10;6.53;;;4.40;99.90;;;;;;5054248;28;20489;-71
2023/01/27 09:30:01;;;;;;;11.37;6.10;;;4.40;99.90;;;;;;5054694;28;20455;-70
2023/01/27 09:32:28;;;;;;;7.30;5.87;;;4.40;99.90;;;;;;5053960;28;20538;-72
2023/01/27 09:34:55;;;;;;;9.13;6.00;;;4.40;99.90;;;;;;5054113;28;20545;-70
2023/01/27 09:37:22;;;;;;;9.80;6.27;;;4.40;99.90;;;;;;5054063;28;20455;-70
2023/01/27 09:40:02;;;;;;;9.93;6.60;;;4.40;99.90;;;;;;5054235;28;20458;-70
2023/01/27 09:42:49;;;;;;;11.90;7.07;;;4.40;99.90;;;;;;5054447;28;20459;-71
2023/01/27 09:45:45;;;;;;;8.53;6.00;;;4.50;99.90;;;;;;5053757;28;20979;-72
2023/01/27 09:48:36;;;;;;;14.30;8.50;;;4.50;99.90;;;;;;5053880;28;20555;-69
2023/01/27 09:51:11;;;;;;;12.43;7.37;;;4.50;99.90;;;;;;5053927;28;20526;-70
2023/01/27 09:54:00;;;;;;;12.67;7.63;;;4.50;99.90;;;;;;5056465;28;20447;-71
2023/01/27 09:56:40;;;;;;;12.20;7.43;;;4.50;99.90;;;;;;5057128;28;20876;-70
2023/01/27 09:59:39;;;;;;;9.20;7.83;;;4.50;99.90;;;;;;5057748;28;20447;-71
2023/01/27 10:02:18;;;;;;;8.93;6.17;;;4.50;99.90;;;;;;5057187;28;20443;-70
2023/01/27 10:05:18;;;;;;;9.97;6.50;;;4.40;99.90;;;;;;5057409;28;20446;-70
2023/01/27 10:08:07;;;;;;;11.23;6.43;;;4.40;99.90;;;;;;5051577;28;20483;-70
2023/01/27 10:10:49;;;;;;;8.27;6.40;;;4.40;99.90;;;;;;5057421;28;20446;-71
2023/01/27 10:13:23;;;;;;;7.13;5.03;;;4.50;99.90;;;;;;5057507;28;20439;-70
2023/01/27 10:16:03;;;;;;;7.47;5.37;;;4.50;99.90;;;;;;5057422;28;20463;-71
2023/01/27 10:18:46;;;;;;;9.67;5.97;;;4.50;99.90;;;;;;5057300;28;20435;-69
2023/01/27 10:21:24;;;;;;;10.80;5.53;;;4.50;99.90;;;;;;5057676;28;20454;-71
2023/01/27 10:24:01;;;;;;;6.47;5.23;;;4.60;99.90;;;;;;5057005;28;20443;-69
2023/01/27 10:26:35;;;;;;;8.10;5.67;;;4.60;99.90;;;;;;5057122;28;20462;-72
2023/01/27 10:29:09;;;;;;;13.07;6.17;;;4.60;99.90;;;;;;5056970;28;20650;-69
2023/01/27 10:31:41;;;;;;;7.80;5.30;;;4.60;99.90;;;;;;5057057;28;20538;-69
2023/01/27 10:34:24;;;;;;;8.80;5.33;;;4.60;99.90;;;;;;5057020;28;20530;-70
2023/01/27 10:37:01;;;;;;;13.47;5.40;;;4.70;99.90;;;;;;5057028;28;20526;-70
2023/01/27 10:39:38;;;;;;;6.53;5.00;;;4.70;99.90;;;;;;5056929;28;20444;-70
2023/01/27 10:42:10;;;;;;;6.93;5.80;;;4.70;99.90;;;;;;5057301;28;20950;-70
2023/01/27 10:44:50;;;;;;;7.70;4.90;;;4.70;99.90;;;;;;5056362;28;20577;-70
2023/01/27 10:47:29;;;;;;;7.33;5.00;;;4.70;99.90;;;;;;5056093;28;20459;-71
2023/01/27 10:50:01;;;;;;;8.80;5.10;;;4.80;99.90;;;;;;5056432;28;20530;-69
2023/01/27 10:52:35;;;;;;;8.00;5.40;;;4.70;99.90;;;;;;5056387;28;20531;-71
2023/01/27 10:55:07;;;;;;;8.20;5.77;;;4.70;99.90;;;;;;5056960;28;20443;-71
2023/01/27 10:57:39;;;;;;;8.27;4.70;;;4.80;99.90;;;;;;5056517;28;20431;-70
2023/01/27 11:00:14;;;;;;;5.53;5.03;;;4.80;99.90;;;;;;5057089;28;20486;-70
2023/01/27 11:02:46;;;;;;;5.60;4.10;;;4.90;99.90;;;;;;5055884;28;20482;-69
2023/01/27 11:05:20;;;;;;;8.80;5.10;;;4.90;99.90;;;;;;5056045;28;20450;-71
2023/01/27 11:07:52;;;;;;;7.77;5.47;;;4.90;99.90;;;;;;5055814;28;20495;-70
2023/01/27 11:10:20;;;;;;;7.23;5.30;;;4.90;99.90;;;;;;5056298;28;20851;-72
2023/01/27 11:12:50;;;;;;;5.07;4.20;;;5.00;99.90;;;;;;5056008;28;20940;-70
2023/01/27 11:15:23;;;;;;;7.10;4.20;;;5.00;99.90;;;;;;5055872;28;20496;-70
2023/01/27 11:17:57;;;;;;;5.33;4.60;;;5.10;99.90;;;;;;5056239;28;20435;-69
2023/01/27 11:20:29;;;;;;;8.47;4.77;;;5.10;99.90;;;;;;5056307;28;20539;-70
2023/01/27 11:23:03;;;;;;;5.30;4.50;;;5.20;99.90;;;;;;5055857;28;20519;-70
2023/01/27 11:25:36;;;;;;;8.03;4.80;;;5.20;99.90;;;;;;5055946;28;20454;-70
2023/01/27 11:28:17;;;;;;;8.50;5.70;;;5.20;99.90;;;;;;5055649;28;20475;-70
2023/01/27 11:30:52;;;;;;;7.73;5.60;;;5.20;99.90;;;;;;5056038;28;20558;-69
2023/01/27 11:33:25;;;;;;;5.97;5.30;;;5.20;99.90;;;;;;5055468;28;20489;-70
2023/01/27 11:35:53;;;;;;;6.03;5.20;;;5.30;99.90;;;;;;5055431;28;20450;-70
2023/01/27 11:38:22;;;;;;;5.27;4.50;;;5.30;99.90;;;;;;5055360;28;20942;-70
2023/01/27 11:40:51;;;;;;;5.27;3.90;;;5.40;99.90;;;;;;5072926;28;20480;-70
2023/01/27 11:43:23;;;;;;;9.07;4.93;;;5.40;99.90;;;;;;5075136;28;20974;-70
2023/01/27 11:45:52;;;;;;;8.40;4.77;;;5.40;99.90;;;;;;5075384;28;20455;-69
2023/01/27 11:48:20;;;;;;;6.97;4.43;;;5.40;99.90;;;;;;5075480;28;20553;-70
2023/01/27 11:50:47;;;;;;;5.00;4.50;;;5.40;99.90;;;;;;5073957;28;20462;-71
2023/01/27 11:53:20;;;;;;;7.27;5.23;;;5.30;99.90;;;;;;5075488;28;20820;-71
2023/01/27 11:55:50;;;;;;;12.40;6.93;;;5.20;99.90;;;;;;5075099;28;20439;-70
2023/01/27 11:58:24;;;;;;;13.23;8.10;;;5.20;99.90;;;;;;5075336;28;20465;-70
2023/01/27 12:00:56;;;;;;;6.43;5.70;;;5.20;99.90;;;;;;5058672;28;20496;-70
2023/01/27 12:03:28;;;;;;;11.53;4.90;;;5.30;99.90;;;;;;5055329;28;20771;-69
2023/01/27 12:05:56;;;;;;;7.90;5.23;;;5.20;99.90;;;;;;5054718;28;20503;-69
2023/01/27 12:08:42;;;;;;;7.83;5.63;;;5.20;99.90;;;;;;5055005;28;20546;-70
2023/01/27 12:11:22;;;;;;;8.57;5.60;;;5.10;99.90;;;;;;5054566;28;20480;-70
2023/01/27 12:13:52;;;;;;;7.50;5.63;;;5.10;99.90;;;;;;5055449;28;20443;-70
2023/01/27 12:16:19;;;;;;;6.83;5.00;;;5.10;99.90;;;;;;5055080;28;20526;-69
2023/01/27 12:18:51;;;;;;;9.53;6.23;;;5.10;99.90;;;;;;5055191;28;20494;-70
2023/01/27 12:21:18;;;;;;;12.53;7.13;;;5.00;99.90;;;;;;5055281;28;20501;-69
2023/01/27 12:23:51;;;;;;;13.70;7.30;;;5.00;99.90;;;;;;5054749;28;20963;-74
2023/01/27 12:26:32;;;;;;;12.77;7.20;;;5.00;99.90;;;;;;5054343;28;20546;-70
2023/01/27 12:29:03;;;;;;;8.60;6.60;;;4.90;99.90;;;;;;5055327;28;20492;-70
2023/01/27 12:31:32;;;;;;;8.40;5.63;;;4.90;99.90;;;;;;5054668;28;20443;-70
2023/01/27 12:34:03;;;;;;;14.37;8.10;;;4.90;99.90;;;;;;5054365;28;20501;-70
2023/01/27 12:36:37;;;;;;;14.73;7.00;;;4.90;99.90;;;;;;5054685;28;20459;-69
2023/01/27 12:39:06;;;;;;;11.60;5.93;;;4.80;99.90;;;;;;5054540;28;20449;-70
2023/01/27 12:41:36;;;;;;;10.67;5.20;;;4.80;99.90;;;;;;5054529;28;20501;-70
2023/01/27 12:44:13;;;;;;;10.10;5.97;;;4.80;99.90;;;;;;5054741;28;20507;-70
2023/01/27 12:46:54;;;;;;;9.70;5.40;;;4.80;99.90;;;;;;5054606;28;20439;-70
2023/01/27 12:49:22;;;;;;;18.27;6.37;;;4.80;99.90;;;;;;5055332;28;20538;-69
2023/01/27 12:51:54;;;;;;;10.40;5.10;;;4.80;99.90;;;;;;5054545;28;20470;-70
2023/01/27 12:54:26;;;;;;;8.63;5.13;;;4.80;99.90;;;;;;5055176;28;20526;-70
2023/01/27 12:56:54;;;;;;;15.07;5.90;;;4.90;99.90;;;;;;5055416;28;20452;-69
2023/01/27 12:59:24;;;;;;;12.00;4.77;;;4.90;99.90;;;;;;5055430;28;20460;-69
2023/01/27 13:02:01;;;;;;;7.00;4.10;;;4.90;99.90;;;;;;5055792;28;20533;-69
2023/01/27 13:04:31;;;;;;;14.37;8.60;;;4.80;99.90;;;;;;5055093;28;20455;-69
2023/01/27 13:07:06;;;;;;;8.33;5.10;;;4.80;99.90;;;;;;5055119;28;20474;-71
2023/01/27 13:09:38;;;;;;;7.33;5.00;;;4.70;99.90;;;;;;5055168;28;20561;-70
2023/01/27 13:12:17;;;;;;;12.23;5.73;;;4.70;99.90;;;;;;5054505;28;20457;-70
2023/01/27 13:14:44;;;;;;;11.03;4.57;;;4.60;99.90;;;;;;5054017;28;20888;-69
2023/01/27 13:17:27;;;;;;;35.20;18.40;;;4.60;99.90;;;;;;5054833;28;20466;-68
2023/01/27 13:19:58;;;;;;;16.30;4.87;;;4.60;99.90;;;;;;5054619;28;20457;-70
2023/01/27 13:22:26;;;;;;;12.27;4.60;;;4.60;99.90;;;;;;5054369;28;20522;-70
2023/01/27 13:24:58;;;;;;;7.00;4.50;;;4.50;99.90;;;;;;5054429;28;20805;-70
2023/01/27 13:27:26;;;;;;;13.63;4.40;;;4.50;99.90;;;;;;5055186;28;20839;-70
2023/01/27 13:30:00;;;;;;;9.00;4.13;;;4.50;99.90;;;;;;5058494;28;20493;-71